createdAt,value
2023-05-02T00:00:29.509Z,5.89
2023-05-02T00:02:56.214Z,5.90
2023-05-02T00:05:23.330Z,5.94
2023-05-02T00:07:51.477Z,5.93
2023-05-02T00:10:18.870Z,5.91
2023-05-02T00:12:45.403Z,5.87
2023-05-02T00:15:11.969Z,5.81
2023-05-02T00:17:43.714Z,5.74
2023-05-02T00:20:11.704Z,5.71
2023-05-02T00:22:38.753Z,5.69
2023-05-02T00:25:06.543Z,5.70
2023-05-02T00:27:33.643Z,5.74
2023-05-02T00:30:03.245Z,5.69
2023-05-02T00:32:30.054Z,5.68
2023-05-02T00:34:56.839Z,5.65
2023-05-02T00:37:26.760Z,5.64
2023-05-02T00:39:53.232Z,5.57
2023-05-02T00:42:19.833Z,5.52
2023-05-02T00:44:47.001Z,5.49
2023-05-02T00:47:15.175Z,5.45
2023-05-02T00:49:42.177Z,5.42
2023-05-02T00:52:09.651Z,5.38
2023-05-02T00:54:38.978Z,5.37
2023-05-02T00:57:05.856Z,5.35
2023-05-02T00:59:34.186Z,5.36
2023-05-02T01:02:13.771Z,5.41
2023-05-02T01:04:59.055Z,5.82
2023-05-02T01:07:44.514Z,5.95
2023-05-02T01:10:55.749Z,6.10
2023-05-02T01:13:26.304Z,6.15
2023-05-02T01:15:56.140Z,6.17
2023-05-02T01:18:30.521Z,6.16
2023-05-02T01:21:08.545Z,6.08
2023-05-02T01:24:07.390Z,6.02
2023-05-02T01:26:47.399Z,6.04
2023-05-02T01:29:16.274Z,6.06
2023-05-02T01:31:45.771Z,5.99
2023-05-02T01:34:12.591Z,5.96
2023-05-02T01:36:46.576Z,6.00
2023-05-02T01:39:16.192Z,6.04
2023-05-02T01:41:43.604Z,6.08
2023-05-02T01:44:11.728Z,6.14
2023-05-02T01:46:42.883Z,6.23
2023-05-02T01:49:10.856Z,6.25
2023-05-02T01:51:51.570Z,6.27
2023-05-02T01:54:22.051Z,6.28
2023-05-02T01:56:50.034Z,6.28
2023-05-02T01:59:19.945Z,6.31
2023-05-02T02:01:47.387Z,6.31
2023-05-02T02:04:15.713Z,6.31
2023-05-02T02:06:46.629Z,6.30
2023-05-02T02:09:13.341Z,6.31
2023-05-02T02:11:59.914Z,6.37
2023-05-02T02:14:31.701Z,6.37
2023-05-02T02:17:01.923Z,6.43
2023-05-02T02:19:30.868Z,6.46
2023-05-02T02:21:59.093Z,6.47
2023-05-02T02:24:26.920Z,6.49
2023-05-02T02:26:53.554Z,6.49
2023-05-02T02:29:20.478Z,6.51
2023-05-02T02:31:47.249Z,6.54
2023-05-02T02:34:13.932Z,6.57
2023-05-02T02:36:49.061Z,6.60
2023-05-02T02:39:36.290Z,6.61
2023-05-02T02:42:14.827Z,6.66
2023-05-02T02:44:56.976Z,6.67
2023-05-02T02:48:03.540Z,6.68
2023-05-02T02:58:35.717Z,6.77
2023-05-02T03:01:06.628Z,6.80
2023-05-02T03:03:35.767Z,6.82
2023-05-02T03:06:04.779Z,6.81
2023-05-02T03:08:50.477Z,6.80
2023-05-02T03:11:17.079Z,6.81
2023-05-02T03:13:52.926Z,6.79
2023-05-02T03:17:01.614Z,6.79
2023-05-02T03:20:07.016Z,6.83
2023-05-02T03:22:33.571Z,6.84
2023-05-02T03:25:00.056Z,6.85
2023-05-02T03:30:07.689Z,6.84
2023-05-02T03:33:32.148Z,6.85
2023-05-02T03:57:32.857Z,6.74
2023-05-02T04:04:08.774Z,6.73
2023-05-02T04:06:35.590Z,6.69
2023-05-02T04:09:02.399Z,6.70
2023-05-02T04:11:28.907Z,6.72
2023-05-02T04:13:55.553Z,6.71
2023-05-02T04:16:22.494Z,6.69
2023-05-02T04:18:49.038Z,6.67
2023-05-02T04:21:15.951Z,6.67
2023-05-02T04:23:42.595Z,6.68
2023-05-02T04:26:09.266Z,6.69
2023-05-02T04:28:38.544Z,6.71
2023-05-02T04:31:05.298Z,6.73
2023-05-02T04:33:32.874Z,6.73
2023-05-02T04:35:59.418Z,6.73
2023-05-02T04:38:26.002Z,6.71
2023-05-02T04:40:52.675Z,6.76
2023-05-02T04:43:19.269Z,6.76
2023-05-02T04:45:47.362Z,6.76
2023-05-02T04:48:14.053Z,6.73
2023-05-02T04:50:40.523Z,6.76
2023-05-02T04:53:09.265Z,6.77
2023-05-02T04:55:35.875Z,6.77
2023-05-02T04:58:02.362Z,6.73
2023-05-02T05:00:29.310Z,6.73
2023-05-02T05:02:55.861Z,6.75
2023-05-02T05:05:22.967Z,6.74
2023-05-02T05:07:49.559Z,6.74
2023-05-02T05:10:16.243Z,6.72
2023-05-02T05:12:43.066Z,6.70
2023-05-02T05:15:10.166Z,6.70
2023-05-02T05:17:36.739Z,6.71
2023-05-02T05:20:03.850Z,6.69
2023-05-02T05:22:38.717Z,6.67
2023-05-02T05:25:05.872Z,6.69
2023-05-02T05:27:34.613Z,6.74
2023-05-02T05:30:01.779Z,6.75
2023-05-02T05:32:29.481Z,6.76
2023-05-02T05:34:57.342Z,6.80
2023-05-02T05:37:23.886Z,6.88
2023-05-02T05:39:50.668Z,6.92
2023-05-02T05:42:17.075Z,6.95
2023-05-02T05:44:43.677Z,6.96
2023-05-02T05:47:10.248Z,7.06
2023-05-02T05:49:38.959Z,7.09
2023-05-02T05:52:05.794Z,7.11
2023-05-02T05:54:32.274Z,7.20
2023-05-02T05:57:01.502Z,7.27
2023-05-02T05:59:28.069Z,7.37
2023-05-02T06:01:57.468Z,7.43
2023-05-02T06:04:24.015Z,7.56
2023-05-02T06:06:51.657Z,7.59
2023-05-02T06:09:18.121Z,7.59
2023-05-02T06:11:44.728Z,7.53
2023-05-02T06:14:11.430Z,7.57
2023-05-02T06:16:38.174Z,7.57
2023-05-02T06:19:04.802Z,7.68
2023-05-02T06:21:31.458Z,7.80
2023-05-02T06:23:58.254Z,7.70
2023-05-02T06:26:24.816Z,7.71
2023-05-02T06:28:51.494Z,7.73
2023-05-02T06:31:18.320Z,7.83
2023-05-02T06:33:44.851Z,7.85
2023-05-02T06:36:12.692Z,7.89
2023-05-02T06:38:39.193Z,7.98
2023-05-02T06:41:05.767Z,7.98
2023-05-02T06:43:32.901Z,7.94
2023-05-02T06:46:01.284Z,7.82
2023-05-02T06:48:28.080Z,7.81
2023-05-02T06:50:54.674Z,7.88
2023-05-02T06:53:24.112Z,8.04
2023-05-02T06:55:50.848Z,8.14
2023-05-02T06:58:21.122Z,8.15
2023-05-02T07:00:50.897Z,8.26
2023-05-02T07:03:17.658Z,8.31
2023-05-02T07:05:44.404Z,8.43
2023-05-02T07:08:11.518Z,8.54
2023-05-02T07:10:40.850Z,8.60
2023-05-02T07:13:08.782Z,8.56
2023-05-02T07:15:35.210Z,8.58
2023-05-02T07:18:04.985Z,8.67
2023-05-02T07:20:31.611Z,8.66
2023-05-02T07:23:04.629Z,8.70
2023-05-02T07:25:31.234Z,8.80
2023-05-02T07:27:57.946Z,8.68
2023-05-02T07:30:24.436Z,8.71
2023-05-02T07:32:51.236Z,8.90
2023-05-02T07:35:18.254Z,9.23
2023-05-02T07:37:44.787Z,9.50
2023-05-02T07:40:11.518Z,9.59
2023-05-02T07:42:38.129Z,9.48
2023-05-02T07:45:05.183Z,9.30
2023-05-02T07:47:35.017Z,9.35
2023-05-02T07:50:03.081Z,9.41
2023-05-02T07:52:33.187Z,9.35
2023-05-02T07:54:59.758Z,9.43
2023-05-02T07:58:01.243Z,9.52
2023-05-02T08:00:30.891Z,9.57
2023-05-02T08:02:59.684Z,9.53
2023-05-02T08:05:27.687Z,9.34
2023-05-02T08:07:56.449Z,9.45
2023-05-02T08:10:24.367Z,9.61
2023-05-02T08:12:51.113Z,9.73
2023-05-02T08:15:17.580Z,9.79
2023-05-02T08:17:44.134Z,9.87
2023-05-02T08:20:11.107Z,9.80
2023-05-02T08:22:37.893Z,9.77
2023-05-02T08:25:07.865Z,9.54
2023-05-02T08:27:35.522Z,9.66
2023-05-02T08:30:05.031Z,10.04
2023-05-02T08:32:32.937Z,10.16
2023-05-02T08:35:01.022Z,9.95
2023-05-02T08:37:27.529Z,9.83
2023-05-02T08:39:54.336Z,9.88
2023-05-02T08:42:25.010Z,9.65
2023-05-02T08:44:54.453Z,9.51
2023-05-02T08:47:23.008Z,9.43
2023-05-02T08:49:50.507Z,9.30
2023-05-02T08:52:23.399Z,9.24
2023-05-02T08:54:57.054Z,9.35
2023-05-02T08:57:23.542Z,9.45
2023-05-02T08:59:55.249Z,9.39
2023-05-02T09:02:52.508Z,9.58
2023-05-02T09:05:23.962Z,9.78
2023-05-02T09:07:51.962Z,9.84
2023-05-02T09:10:18.677Z,9.85
2023-05-02T09:12:45.388Z,9.93
2023-05-02T09:15:21.523Z,10.03
2023-05-02T09:17:50.188Z,10.09
2023-05-02T09:20:17.421Z,10.00
2023-05-02T09:22:52.471Z,9.74
2023-05-02T09:25:22.520Z,9.75
2023-05-02T09:27:56.796Z,9.90
2023-05-02T09:30:25.395Z,9.95
2023-05-02T09:32:55.899Z,10.05
2023-05-02T09:35:30.682Z,10.09
2023-05-02T09:37:59.457Z,10.08
2023-05-02T09:40:27.839Z,10.25
2023-05-02T09:42:55.884Z,10.23
2023-05-02T09:45:24.781Z,10.16
2023-05-02T09:47:59.327Z,10.41
2023-05-02T09:50:37.670Z,10.62
2023-05-02T09:53:13.441Z,10.69
2023-05-02T09:55:43.098Z,10.64
2023-05-02T09:58:24.084Z,10.72
2023-05-02T10:00:54.801Z,10.56
2023-05-02T10:03:26.667Z,10.70
2023-05-02T10:05:56.574Z,11.14
2023-05-02T10:08:28.296Z,11.61
2023-05-02T10:10:57.540Z,11.61
2023-05-02T10:13:27.308Z,11.22
2023-05-02T10:16:02.794Z,11.10
2023-05-02T10:18:40.914Z,11.21
2023-05-02T10:21:27.921Z,11.32
2023-05-02T10:23:54.937Z,11.36
2023-05-02T10:26:26.362Z,11.45
2023-05-02T10:28:56.371Z,11.43
2023-05-02T10:31:23.150Z,11.73
2023-05-02T10:33:52.342Z,11.88
2023-05-02T10:36:23.610Z,12.04
2023-05-02T10:38:51.170Z,12.38
2023-05-02T10:41:26.964Z,12.34
2023-05-02T10:43:54.043Z,12.50
2023-05-02T10:46:37.410Z,12.05
2023-05-02T10:49:11.526Z,11.17
2023-05-02T10:51:43.549Z,11.13
2023-05-02T10:54:20.755Z,11.49
2023-05-02T10:57:05.946Z,11.82
2023-05-02T10:59:37.301Z,11.84
2023-05-02T11:02:07.142Z,12.33
2023-05-02T11:05:07.219Z,12.29
2023-05-02T11:07:36.207Z,12.19
2023-05-02T11:10:18.198Z,12.56
2023-05-02T11:12:49.152Z,12.72
2023-05-02T11:15:38.510Z,12.81
2023-05-02T11:18:12.564Z,12.78
2023-05-02T11:21:38.937Z,12.88
2023-05-02T11:24:38.844Z,13.07
2023-05-02T11:27:30.526Z,12.80
2023-05-02T11:29:58.915Z,12.28
2023-05-02T11:32:46.621Z,12.05
2023-05-02T11:35:18.913Z,12.56
2023-05-02T11:37:59.320Z,12.14
2023-05-02T11:40:27.609Z,11.83
2023-05-02T11:42:54.746Z,12.09
2023-05-02T11:45:21.584Z,12.30
2023-05-02T11:47:49.776Z,12.46
2023-05-02T11:50:16.934Z,12.46
2023-05-02T11:52:45.384Z,12.63
2023-05-02T11:55:14.347Z,12.61
2023-05-02T11:57:41.246Z,13.15
2023-05-02T12:00:08.462Z,13.78
2023-05-02T12:02:45.715Z,13.10
2023-05-02T12:05:14.169Z,13.19
2023-05-02T12:07:45.939Z,12.78
2023-05-02T12:10:13.782Z,12.48
2023-05-02T12:12:44.848Z,12.20
2023-05-02T12:15:12.704Z,11.81
2023-05-02T12:17:42.191Z,11.83
2023-05-02T12:20:11.078Z,12.54
2023-05-02T12:22:38.033Z,13.00
2023-05-02T12:25:05.742Z,13.34
2023-05-02T12:27:33.428Z,13.27
2023-05-02T12:30:00.815Z,12.83
2023-05-02T12:32:32.356Z,12.56
2023-05-02T12:35:00.302Z,12.37
2023-05-02T12:37:27.657Z,12.58
2023-05-02T12:39:55.716Z,12.51
2023-05-02T12:42:24.546Z,12.37
2023-05-02T12:44:54.238Z,12.66
2023-05-02T12:47:22.899Z,12.94
2023-05-02T12:49:52.920Z,13.17
2023-05-02T12:52:21.041Z,13.21
2023-05-02T12:54:47.722Z,13.21
2023-05-02T12:57:24.888Z,13.31
2023-05-02T12:59:58.797Z,13.20
2023-05-02T13:02:25.973Z,13.42
2023-05-02T13:04:52.870Z,13.25
2023-05-02T13:07:19.577Z,12.90
2023-05-02T13:09:46.054Z,12.77
2023-05-02T13:12:12.836Z,12.99
2023-05-02T13:14:39.453Z,12.91
2023-05-02T13:17:08.664Z,12.95
2023-05-02T13:19:35.453Z,12.92
2023-05-02T13:22:02.003Z,12.53
2023-05-02T13:24:28.506Z,12.55
2023-05-02T13:26:54.906Z,12.47
2023-05-02T13:29:21.361Z,12.47
2023-05-02T13:31:48.539Z,12.90
2023-05-02T13:34:16.288Z,13.72
2023-05-02T13:36:46.280Z,13.94
2023-05-02T13:39:13.913Z,14.24
2023-05-02T13:41:40.642Z,14.04
2023-05-02T13:44:07.116Z,13.59
2023-05-02T13:46:36.760Z,13.09
2023-05-02T13:49:04.262Z,12.63
2023-05-02T13:51:33.055Z,12.27
2023-05-02T13:54:04.192Z,12.26
2023-05-02T13:56:31.801Z,12.08
2023-05-02T13:58:58.417Z,12.28
2023-05-02T14:01:26.900Z,12.41
2023-05-02T14:03:53.734Z,12.33
2023-05-02T14:06:20.405Z,12.41
2023-05-02T14:08:46.972Z,12.62
2023-05-02T14:11:13.435Z,12.80
2023-05-02T14:13:39.939Z,12.86
2023-05-02T14:16:06.507Z,13.23
2023-05-02T14:23:54.445Z,13.01
2023-05-02T14:26:21.326Z,12.63
2023-05-02T14:28:47.923Z,12.41
2023-05-02T14:31:16.518Z,12.20
2023-05-02T14:33:43.425Z,12.19
2023-05-02T14:36:10.190Z,12.52
2023-05-02T14:38:38.715Z,12.75
2023-05-02T14:41:14.803Z,12.91
2023-05-02T14:43:43.970Z,12.99
2023-05-02T14:46:10.518Z,12.91
2023-05-02T14:48:37.134Z,12.81
2023-05-02T14:51:04.815Z,12.93
2023-05-02T14:53:34.176Z,12.93
2023-05-02T14:56:00.794Z,12.75
2023-05-02T14:58:34.711Z,12.71
2023-05-02T15:01:03.315Z,12.42
2023-05-02T15:03:30.480Z,12.61
2023-05-02T15:05:57.498Z,12.81
2023-05-02T15:08:25.409Z,13.41
2023-05-02T15:10:51.919Z,14.09
2023-05-02T15:13:18.781Z,14.60
2023-05-02T15:15:47.007Z,14.06
2023-05-02T15:18:13.701Z,13.92
2023-05-02T15:20:40.959Z,13.56
2023-05-02T15:23:07.517Z,13.74
2023-05-02T15:25:34.096Z,13.71
2023-05-02T15:28:02.482Z,12.83
2023-05-02T15:30:28.877Z,12.35
2023-05-02T15:32:55.630Z,12.24
2023-05-02T15:35:22.226Z,12.44
2023-05-02T15:37:50.597Z,12.87
2023-05-02T15:40:17.155Z,13.33
2023-05-02T15:42:43.728Z,13.43
2023-05-02T15:45:16.235Z,12.90
2023-05-02T15:47:42.830Z,12.54
2023-05-02T15:50:11.046Z,12.70
2023-05-02T15:52:37.474Z,13.22
2023-05-02T15:55:05.129Z,13.20
2023-05-02T15:57:31.615Z,13.34
2023-05-02T15:59:58.325Z,13.29
2023-05-02T16:02:25.043Z,13.41
2023-05-02T16:04:51.867Z,13.21
2023-05-02T16:07:18.434Z,13.19
2023-05-02T16:09:46.357Z,13.44
2023-05-02T16:12:13.639Z,13.39
2023-05-02T16:14:40.086Z,13.49
2023-05-02T16:17:06.641Z,13.49
2023-05-02T16:19:33.164Z,13.10
2023-05-02T16:22:00.297Z,12.70
2023-05-02T16:24:27.025Z,12.71
2023-05-02T16:26:55.758Z,12.60
2023-05-02T16:29:22.551Z,12.38
2023-05-02T16:31:49.000Z,12.71
2023-05-02T16:34:15.553Z,12.89
2023-05-02T16:36:42.350Z,13.30
2023-05-02T16:39:10.745Z,13.45
2023-05-02T16:41:37.725Z,13.54
2023-05-02T16:44:04.688Z,13.42
2023-05-02T16:46:31.862Z,13.79
2023-05-02T16:48:58.757Z,14.06
2023-05-02T16:51:25.189Z,14.17
2023-05-02T16:53:51.673Z,14.20
2023-05-02T16:56:18.234Z,14.29
2023-05-02T16:58:44.909Z,13.95
2023-05-02T17:01:11.819Z,13.31
2023-05-02T17:03:41.876Z,13.62
2023-05-02T17:06:08.699Z,13.35
2023-05-02T17:08:35.755Z,13.42
2023-05-02T17:11:02.488Z,12.89
2023-05-02T17:13:30.070Z,11.99
2023-05-02T17:15:57.545Z,11.52
2023-05-02T17:18:24.581Z,11.34
2023-05-02T17:20:51.551Z,11.31
2023-05-02T17:23:18.302Z,11.25
2023-05-02T17:25:45.124Z,11.00
2023-05-02T17:28:12.101Z,10.72
2023-05-02T17:30:39.031Z,10.63
2023-05-02T17:33:06.034Z,10.52
2023-05-02T17:35:32.814Z,10.53
2023-05-02T17:37:59.457Z,10.49
2023-05-02T17:40:26.971Z,10.44
2023-05-02T17:42:53.559Z,10.35
2023-05-02T17:45:20.260Z,10.26
2023-05-02T17:47:47.248Z,10.19
2023-05-02T17:50:19.943Z,10.07
2023-05-02T17:52:46.667Z,9.98
2023-05-02T17:55:13.317Z,9.85
2023-05-02T17:57:43.258Z,9.85
2023-05-02T18:00:10.541Z,9.80
2023-05-02T18:02:37.916Z,9.67
2023-05-02T18:05:07.081Z,9.61
2023-05-02T18:07:34.872Z,9.49
2023-05-02T18:10:04.202Z,9.39
2023-05-02T18:12:33.603Z,9.28
2023-05-02T18:15:02.911Z,9.22
2023-05-02T18:17:29.899Z,9.14
2023-05-02T18:19:56.606Z,8.98
2023-05-02T18:22:23.102Z,8.83
2023-05-02T18:24:50.100Z,8.72
2023-05-02T18:27:17.508Z,8.68
2023-05-02T18:29:44.012Z,8.55
2023-05-02T18:32:10.542Z,8.52
2023-05-02T18:34:38.743Z,8.46
2023-05-02T18:37:05.914Z,8.44
2023-05-02T18:39:34.929Z,8.35
2023-05-02T18:42:05.585Z,8.29
2023-05-02T18:44:32.137Z,8.24
2023-05-02T18:46:59.357Z,8.15
2023-05-02T18:49:26.275Z,8.00
2023-05-02T18:51:54.688Z,7.81
2023-05-02T18:54:23.324Z,7.73
2023-05-02T18:56:50.048Z,7.69
2023-05-02T18:59:16.729Z,7.75
2023-05-02T19:01:50.245Z,7.68
2023-05-02T19:04:16.766Z,7.62
2023-05-02T19:06:43.336Z,7.42
2023-05-02T19:09:09.893Z,7.31
2023-05-02T19:11:36.641Z,7.21
2023-05-02T19:14:03.652Z,7.22
2023-05-02T19:16:31.716Z,7.20
2023-05-02T19:18:59.445Z,7.03
2023-05-02T19:21:26.174Z,6.99
2023-05-02T19:23:52.859Z,7.00
2023-05-02T19:26:19.969Z,6.90
2023-05-02T19:28:46.550Z,6.80
2023-05-02T19:31:18.418Z,6.73
2023-05-02T19:33:52.163Z,6.62
2023-05-02T19:36:20.100Z,6.58
2023-05-02T19:38:52.212Z,6.50
2023-05-02T19:41:18.914Z,6.45
2023-05-02T19:43:45.833Z,6.41
2023-05-02T19:46:14.242Z,6.36
2023-05-02T19:48:40.761Z,6.28
2023-05-02T19:51:07.578Z,6.22
2023-05-02T19:53:35.991Z,6.41
2023-05-02T19:56:10.589Z,6.27
2023-05-02T19:58:37.146Z,6.27
2023-05-02T20:01:03.816Z,6.51
2023-05-02T20:03:30.708Z,6.57
2023-05-02T20:05:58.467Z,6.65
2023-05-02T20:08:27.948Z,6.52
2023-05-02T20:10:55.726Z,6.52
2023-05-02T20:13:22.210Z,6.54
2023-05-02T20:15:52.946Z,6.46
2023-05-02T20:18:20.432Z,6.43
2023-05-02T20:20:46.963Z,6.39
2023-05-02T20:23:13.758Z,6.32
2023-05-02T20:25:41.896Z,6.28
2023-05-02T20:28:09.279Z,6.21
2023-05-02T20:30:35.893Z,6.06
2023-05-02T20:33:13.912Z,6.07
2023-05-02T20:35:44.808Z,5.89
2023-05-02T20:38:12.772Z,5.89
2023-05-02T20:40:40.658Z,5.94
2023-05-02T20:43:09.904Z,5.87
2023-05-02T20:45:36.361Z,5.89
2023-05-02T20:48:02.933Z,5.77
2023-05-02T20:50:31.548Z,5.72
2023-05-02T20:52:58.231Z,5.74
2023-05-02T20:55:24.833Z,5.68
2023-05-02T20:57:53.124Z,5.70
2023-05-02T21:00:22.462Z,5.66
2023-05-02T21:02:49.330Z,5.58
2023-05-02T21:05:16.123Z,5.61
2023-05-02T21:07:42.971Z,5.48
2023-05-02T21:10:10.052Z,5.42
2023-05-02T21:12:36.681Z,5.41
2023-05-02T21:15:06.994Z,5.29
2023-05-02T21:17:33.525Z,5.22
2023-05-02T21:20:00.212Z,5.22
2023-05-02T21:22:27.044Z,5.19
2023-05-02T21:24:53.513Z,5.19
2023-05-02T21:27:20.121Z,5.26
2023-05-02T21:29:46.844Z,5.18
2023-05-02T21:32:13.788Z,5.14
2023-05-02T21:34:41.007Z,5.00
2023-05-02T21:37:07.492Z,4.99
2023-05-02T21:39:34.016Z,4.97
2023-05-02T21:42:01.493Z,4.87
2023-05-02T21:44:28.166Z,4.88
2023-05-02T21:46:54.871Z,4.82
2023-05-02T21:49:21.836Z,4.75
2023-05-02T21:51:49.288Z,4.73
2023-05-02T21:54:15.802Z,4.71
2023-05-02T21:56:43.028Z,4.61
2023-05-02T21:59:10.053Z,4.67
2023-05-02T22:01:36.562Z,4.62
2023-05-02T22:04:02.999Z,4.58
2023-05-02T22:06:31.480Z,4.46
2023-05-02T22:08:58.061Z,4.42
2023-05-02T22:11:25.760Z,4.31
2023-05-02T22:13:54.378Z,4.23
2023-05-02T22:16:21.427Z,4.33
2023-05-02T22:18:52.248Z,4.30
2023-05-02T22:21:18.929Z,4.25
2023-05-02T22:23:45.542Z,4.17
2023-05-02T22:26:12.049Z,4.09
2023-05-02T22:28:38.504Z,4.04
2023-05-02T22:31:05.415Z,4.02
2023-05-02T22:33:33.425Z,3.97
2023-05-02T22:35:59.846Z,3.90
2023-05-02T22:38:26.386Z,3.85
2023-05-02T22:40:52.806Z,3.82
2023-05-02T22:43:19.406Z,3.77
2023-05-02T22:45:46.558Z,3.71
2023-05-02T22:48:13.120Z,3.67
2023-05-02T22:50:40.164Z,3.64
2023-05-02T22:53:09.398Z,3.66
2023-05-02T22:55:38.918Z,3.66
2023-05-02T22:58:11.743Z,3.71
2023-05-02T23:00:39.550Z,3.68
2023-05-02T23:03:06.163Z,3.68
2023-05-02T23:05:32.732Z,3.78
2023-05-02T23:07:59.417Z,3.80
2023-05-02T23:10:25.949Z,3.86
2023-05-02T23:12:52.453Z,3.93
2023-05-02T23:15:20.881Z,3.85
2023-05-02T23:17:47.449Z,3.87
2023-05-02T23:20:14.409Z,3.82
2023-05-02T23:22:45.753Z,3.72
2023-05-02T23:25:13.084Z,3.71
2023-05-02T23:27:39.655Z,3.69
2023-05-02T23:30:08.313Z,3.73
2023-05-02T23:32:35.193Z,3.64
2023-05-02T23:35:01.935Z,3.56
2023-05-02T23:37:29.100Z,3.54
2023-05-02T23:39:58.092Z,3.63
2023-05-02T23:42:24.826Z,3.62
2023-05-02T23:44:53.689Z,3.65
2023-05-02T23:47:20.146Z,3.61
2023-05-02T23:49:46.547Z,3.56
2023-05-02T23:52:13.080Z,3.54
2023-05-02T23:54:41.485Z,3.60
2023-05-02T23:57:09.296Z,3.62
2023-05-02T23:59:36.177Z,3.56
